Time;durP1;ratioP1;P1;durP2;ratioP2;P2;SDS_P1;SDS_P2;PMS_P1;PMS_P2;Temp;Humidity;BMP_temperature;BMP_pressure;BME280_temperature;BME280_humidity;BME280_pressure;Samples;Min_cycle;Max_cycle;Signal;HPM_P1;HPM_P2
2022/06/26 00:00:36;;;;;;;0.00;0.00;;;;;;;18.48;78.23;100021.94;5091645;28;20269;-75
2022/06/26 00:03:01;;;;;;;0.10;0.10;;;;;;;18.46;78.11;100029.81;5091452;28;20185;-74
2022/06/26 00:05:27;;;;;;;0.00;0.00;;;;;;;18.48;78.24;100035.75;5091650;28;20666;-74
2022/06/26 00:07:52;;;;;;;0.00;0.00;;;;;;;18.52;78.11;100033.88;5090868;28;20178;-73
2022/06/26 00:10:17;;;;;;;0.00;0.00;;;;;;;18.60;78.19;100030.81;5091239;28;20198;-73
2022/06/26 00:12:43;;;;;;;0.00;0.00;;;;;;;18.73;78.99;100032.19;5091348;28;20223;-74
2022/06/26 00:15:09;;;;;;;0.00;0.00;;;;;;;18.82;79.52;100031.13;5091249;28;20227;-73
2022/06/26 00:17:34;;;;;;;0.00;0.00;;;;;;;18.85;79.16;100024.81;5090764;28;20258;-73
2022/06/26 00:19:59;;;;;;;0.00;0.00;;;;;;;18.83;79.15;100033.50;5091079;28;20604;-75
2022/06/26 00:22:26;;;;;;;0.00;0.00;;;;;;;18.81;79.50;100035.84;5091297;28;20533;-73
2022/06/26 00:24:52;;;;;;;0.00;0.00;;;;;;;18.80;80.49;100031.47;5091018;28;20171;-74
2022/06/26 00:27:17;;;;;;;0.00;0.00;;;;;;;18.83;81.05;100038.25;5091022;28;20678;-73
2022/06/26 00:29:42;;;;;;;0.00;0.00;;;;;;;19.06;80.69;100040.88;5090261;28;20182;-73
2022/06/26 00:32:08;;;;;;;0.00;0.00;;;;;;;19.20;80.39;100033.50;5091107;28;20721;-74
2022/06/26 00:34:33;;;;;;;0.00;0.00;;;;;;;19.17;80.38;100044.56;5090935;28;20186;-74
2022/06/26 00:36:58;;;;;;;0.00;0.00;;;;;;;18.81;81.40;100046.94;5090569;28;20179;-74
2022/06/26 00:39:24;;;;;;;0.00;0.00;;;;;;;18.64;83.23;100053.00;5071767;28;20183;-73
2022/06/26 00:41:53;;;;;;;0.00;0.00;;;;;;;18.38;84.00;100048.28;5052805;28;20207;-73
2022/06/26 00:44:21;;;;;;;0.00;0.00;;;;;;;18.63;83.99;100048.63;5070556;28;20279;-74
2022/06/26 00:46:46;;;;;;;0.00;0.00;;;;;;;18.83;83.16;100047.34;5070128;28;20531;-74
2022/06/26 00:49:12;;;;;;;0.00;0.00;;;;;;;18.85;82.38;100047.75;5070179;28;20181;-75
2022/06/26 00:51:51;;;;;;;0.00;0.00;;;;;;;18.85;82.06;100053.28;5070530;28;20251;-73
2022/06/26 00:54:18;;;;;;;0.00;0.00;;;;;;;18.84;82.40;100046.16;5070626;28;20175;-74
2022/06/26 00:56:43;;;;;;;0.00;0.00;;;;;;;18.71;82.40;100042.03;5070150;28;20171;-74
2022/06/26 00:59:10;;;;;;;0.00;0.00;;;;;;;18.61;83.06;100051.75;5069951;28;20710;-75
2022/06/26 01:01:35;;;;;;;0.00;0.00;;;;;;;18.56;83.40;100052.09;5070614;28;20184;-74
2022/06/26 01:04:01;;;;;;;0.30;0.30;;;;;;;18.52;83.93;100050.47;5070299;28;20175;-74
2022/06/26 01:06:28;;;;;;;0.00;0.00;;;;;;;18.47;84.14;100050.78;5052295;28;20593;-72
2022/06/26 01:08:53;;;;;;;0.00;0.00;;;;;;;18.34;83.95;100048.22;5069514;28;20174;-73
2022/06/26 01:11:20;;;;;;;0.00;0.00;;;;;;;18.14;84.92;100055.03;5070540;28;20542;-74
2022/06/26 01:13:51;;;;;;;0.00;0.00;;;;;;;17.96;86.16;100060.31;5070234;28;20174;-75
2022/06/26 01:16:18;;;;;;;0.00;0.00;;;;;;;17.84;87.19;100055.75;5070239;28;20171;-74
2022/06/26 01:18:45;;;;;;;0.00;0.00;;;;;;;17.81;88.04;100055.72;5069845;28;20166;-74
2022/06/26 01:21:11;;;;;;;0.20;0.20;;;;;;;17.75;88.19;100066.25;5070021;28;20641;-72
2022/06/26 01:23:37;;;;;;;0.00;0.00;;;;;;;17.77;88.45;100063.13;5070241;28;20638;-75
2022/06/26 01:26:04;;;;;;;0.00;0.00;;;;;;;17.84;88.64;100058.53;5070002;28;20686;-74
2022/06/26 01:28:30;;;;;;;0.00;0.00;;;;;;;17.96;88.99;100067.81;5072032;28;20257;-75
2022/06/26 01:30:55;;;;;;;0.00;0.00;;;;;;;18.03;89.10;100062.38;5074305;28;20176;-73
2022/06/26 01:33:21;;;;;;;0.00;0.00;;;;;;;18.07;89.13;100058.47;5074113;28;20204;-75
2022/06/26 01:35:46;;;;;;;0.00;0.00;;;;;;;18.14;89.07;100066.09;5073904;28;20170;-73
2022/06/26 01:38:22;;;;;;;0.00;0.00;;;;;;;18.17;87.77;100065.34;5073431;28;20182;-74
2022/06/26 01:40:50;;;;;;;0.00;0.00;;;;;;;18.06;85.95;100067.16;5074201;28;20178;-74
2022/06/26 01:43:18;;;;;;;0.00;0.00;;;;;;;17.89;85.74;100065.69;5074096;28;20189;-74
2022/06/26 01:45:46;;;;;;;0.00;0.00;;;;;;;17.80;85.85;100067.94;5073929;28;20677;-73
2022/06/26 01:48:12;;;;;;;0.00;0.00;;;;;;;17.64;87.09;100070.75;5073057;28;20212;-73
2022/06/26 01:50:37;;;;;;;0.10;0.10;;;;;;;17.56;88.16;100071.81;5074079;28;20265;-72
2022/06/26 01:53:03;;;;;;;0.00;0.00;;;;;;;17.51;88.85;100066.63;5073903;28;20179;-72
2022/06/26 01:55:28;;;;;;;0.60;0.60;;;;;;;17.55;90.34;100070.22;5074067;28;20174;-72
2022/06/26 01:57:54;;;;;;;0.00;0.00;;;;;;;17.54;89.40;100069.44;5073040;28;20672;-72
2022/06/26 02:00:20;;;;;;;0.00;0.00;;;;;;;17.63;89.85;100068.38;5074607;28;20622;-73
2022/06/26 02:02:45;;;;;;;0.37;0.37;;;;;;;17.71;89.89;100068.16;5073588;28;20175;-72
2022/06/26 02:05:10;;;;;;;0.10;0.10;;;;;;;17.74;88.91;100069.41;5074510;28;20171;-73
2022/06/26 02:07:35;;;;;;;0.00;0.00;;;;;;;17.81;88.53;100062.03;5073136;28;20189;-74
2022/06/26 02:15:29;;;;;;;0.00;0.00;;;;;;;17.77;89.47;100066.69;5073526;28;20232;-72
2022/06/26 02:17:55;;;;;;;0.00;0.00;;;;;;;17.81;89.35;100066.78;5073325;28;20179;-73
2022/06/26 02:20:20;;;;;;;0.00;0.00;;;;;;;17.82;89.60;100060.88;5055318;28;20174;-73
2022/06/26 02:22:45;;;;;;;0.00;0.00;;;;;;;17.88;89.74;100068.84;5073480;28;20185;-73
2022/06/26 02:25:11;;;;;;;0.00;0.00;;;;;;;17.93;89.68;100068.50;5073119;28;20225;-74
2022/06/26 02:27:36;;;;;;;0.00;0.00;;;;;;;17.99;89.26;100069.81;5072557;28;20201;-73
2022/06/26 02:30:02;;;;;;;0.00;0.00;;;;;;;18.01;88.10;100067.47;5073591;28;20190;-73
2022/06/26 02:32:27;;;;;;;0.00;0.00;;;;;;;18.02;87.98;100067.09;5073321;28;20667;-73
2022/06/26 02:34:53;;;;;;;0.00;0.00;;;;;;;17.75;88.28;100071.78;5073229;28;20224;-74
2022/06/26 02:37:18;;;;;;;0.00;0.00;;;;;;;17.47;90.36;100062.97;5072769;28;20266;-73
2022/06/26 02:39:43;;;;;;;0.00;0.00;;;;;;;17.35;91.13;100069.44;5071211;28;20178;-75
2022/06/26 02:42:09;;;;;;;0.00;0.00;;;;;;;17.22;92.08;100066.09;5072931;28;20175;-76
2022/06/26 02:44:34;;;;;;;0.00;0.00;;;;;;;17.22;92.23;100062.53;5072829;28;20182;-75
2022/06/26 02:47:00;;;;;;;0.00;0.00;;;;;;;17.36;91.56;100071.06;5054571;28;20214;-73
2022/06/26 02:49:26;;;;;;;0.00;0.00;;;;;;;17.43;91.24;100070.41;5072604;28;20186;-76
2022/06/26 02:51:51;;;;;;;0.00;0.00;;;;;;;17.63;90.06;100082.19;5072819;28;20179;-72
2022/06/26 02:54:17;;;;;;;0.00;0.00;;;;;;;17.73;89.13;100073.31;5069738;28;20730;-75
2022/06/26 02:56:42;;;;;;;0.00;0.00;;;;;;;17.69;88.69;100078.00;5071999;28;20178;-73
2022/06/26 02:59:07;;;;;;;0.20;0.20;;;;;;;17.77;87.89;100083.25;5075319;28;20215;-74
2022/06/26 03:01:33;;;;;;;0.00;0.00;;;;;;;17.69;87.23;100078.81;5089247;28;20175;-74
2022/06/26 03:03:58;;;;;;;0.73;0.30;;;;;;;17.69;86.79;100078.00;5074662;28;20171;-74
2022/06/26 03:06:23;;;;;;;0.00;0.00;;;;;;;17.72;86.81;100083.59;5092388;28;20254;-73
2022/06/26 03:08:49;;;;;;;0.00;0.00;;;;;;;17.75;86.62;100080.06;5091885;28;20174;-74
2022/06/26 03:11:14;;;;;;;0.00;0.00;;;;;;;17.65;86.30;100079.84;5080156;28;20217;-76
2022/06/26 03:13:39;;;;;;;0.00;0.00;;;;;;;17.63;87.23;100085.75;5080143;28;20578;-74
2022/06/26 03:16:05;;;;;;;0.00;0.00;;;;;;;17.77;86.49;100088.78;5092329;28;20178;-73
2022/06/26 03:18:30;;;;;;;0.00;0.00;;;;;;;17.76;86.00;100086.41;5092003;28;20174;-72
2022/06/26 03:20:56;;;;;;;0.00;0.00;;;;;;;17.86;85.50;100087.75;5075801;28;20183;-72
2022/06/26 03:24:00;;;;;;;0.00;0.00;;;;;;;17.82;85.75;100096.78;5072098;28;20363;-73
2022/06/26 03:26:06;;;;;;;0.00;0.00;;;;;;;17.81;86.02;100086.13;5071877;28;20245;-73
2022/06/26 03:28:32;;;;;;;0.00;0.00;;;;;;;17.85;86.17;100089.72;5071304;28;20213;-73
2022/06/26 03:30:57;;;;;;;0.00;0.00;;;;;;;17.75;86.10;100085.59;5072187;28;20183;-72
2022/06/26 03:33:22;;;;;;;0.00;0.00;;;;;;;17.71;86.38;100093.03;5071971;28;20328;-73
2022/06/26 03:35:48;;;;;;;0.00;0.00;;;;;;;17.67;87.39;100094.13;5071850;28;20182;-73
2022/06/26 03:38:14;;;;;;;0.70;0.67;;;;;;;17.57;88.12;100090.00;5071128;28;20232;-72
2022/06/26 03:40:39;;;;;;;0.00;0.00;;;;;;;17.69;88.69;100087.09;5071718;28;20747;-72
2022/06/26 03:43:05;;;;;;;0.00;0.00;;;;;;;17.78;88.05;100090.38;5072094;28;20269;-72
2022/06/26 03:45:30;;;;;;;0.00;0.00;;;;;;;17.93;86.18;100080.38;5071743;28;20313;-72
2022/06/26 03:47:56;;;;;;;0.00;0.00;;;;;;;18.00;85.11;100086.03;5070691;28;20209;-72
2022/06/26 03:50:21;;;;;;;0.10;0.10;;;;;;;18.11;84.34;100094.50;5084738;28;20174;-73
2022/06/26 03:52:46;;;;;;;0.00;0.00;;;;;;;18.16;83.67;100099.72;5091797;28;20182;-73
2022/06/26 03:55:12;;;;;;;0.00;0.00;;;;;;;18.14;83.68;100100.09;5091684;28;20173;-72
2022/06/26 03:57:37;;;;;;;0.00;0.00;;;;;;;18.21;83.46;100110.44;5090908;28;20181;-73
2022/06/26 04:00:03;;;;;;;0.00;0.00;;;;;;;18.26;83.53;100110.16;5091571;28;20185;-72
2022/06/26 04:02:29;;;;;;;0.10;0.10;;;;;;;18.22;84.34;100112.03;5091511;28;20170;-72
2022/06/26 04:04:54;;;;;;;0.00;0.00;;;;;;;18.22;84.66;100117.56;5091301;28;20257;-72
2022/06/26 04:07:20;;;;;;;0.00;0.00;;;;;;;18.23;84.33;100121.97;5091145;28;20536;-73
2022/06/26 04:09:45;;;;;;;0.13;0.13;;;;;;;18.18;84.94;100116.72;5091009;28;20381;-73
2022/06/26 04:12:10;;;;;;;0.00;0.00;;;;;;;18.19;85.23;100120.28;5091138;28;20258;-72
2022/06/26 04:14:36;;;;;;;0.00;0.00;;;;;;;18.09;85.78;100117.00;5091309;28;20198;-73
2022/06/26 04:17:01;;;;;;;0.00;0.00;;;;;;;18.06;86.30;100116.91;5090983;28;20185;-73
2022/06/26 04:19:27;;;;;;;0.00;0.00;;;;;;;17.96;85.81;100123.88;5090874;28;20641;-73
2022/06/26 04:21:52;;;;;;;0.00;0.00;;;;;;;17.95;85.85;100104.91;5091127;28;20188;-73
2022/06/26 04:24:17;;;;;;;0.00;0.00;;;;;;;18.02;86.75;100111.34;5091185;28;20170;-72
2022/06/26 04:26:43;;;;;;;0.00;0.00;;;;;;;18.09;87.02;100102.38;5085113;28;20670;-73
2022/06/26 04:29:08;;;;;;;0.00;0.00;;;;;;;18.18;86.17;100108.44;5074068;28;20515;-73
2022/06/26 04:31:33;;;;;;;0.00;0.00;;;;;;;18.37;85.67;100110.28;5091172;28;20178;-73
2022/06/26 04:33:59;;;;;;;0.00;0.00;;;;;;;18.37;85.06;100110.28;5090990;28;20185;-73
2022/06/26 04:36:24;;;;;;;0.00;0.00;;;;;;;18.32;84.11;100114.19;5090885;28;20178;-73
2022/06/26 04:38:49;;;;;;;0.00;0.00;;;;;;;18.30;85.14;100110.19;5090182;28;20223;-73
2022/06/26 04:43:58;;;;;;;0.00;0.00;;;;;;;18.46;86.06;100107.28;5090877;28;20276;-72
2022/06/26 04:46:24;;;;;;;0.00;0.00;;;;;;;18.60;86.16;100110.25;5090638;28;20749;-73
2022/06/26 04:48:49;;;;;;;4.33;2.03;;;;;;;18.79;84.69;100115.69;5089940;28;20185;-72
2022/06/26 04:51:15;;;;;;;0.00;0.00;;;;;;;18.99;82.64;100116.34;5090693;28;20171;-73
2022/06/26 04:53:40;;;;;;;0.00;0.00;;;;;;;19.21;82.07;100109.88;5090681;28;20537;-73
2022/06/26 04:56:06;;;;;;;0.00;0.00;;;;;;;19.40;82.11;100117.25;5090593;28;20181;-72
2022/06/26 04:58:31;;;;;;;0.07;0.07;;;;;;;19.52;81.49;100118.94;5090082;28;20249;-73
2022/06/26 05:00:56;;;;;;;0.00;0.00;;;;;;;19.58;80.71;100123.81;5090574;28;20239;-72
2022/06/26 05:03:22;;;;;;;0.00;0.00;;;;;;;19.53;79.47;100118.56;5089761;28;20536;-72
2022/06/26 05:05:47;;;;;;;0.00;0.00;;;;;;;19.42;79.38;100134.28;5090422;28;20205;-72
2022/06/26 05:08:12;;;;;;;0.10;0.10;;;;;;;19.27;80.05;100132.53;5089841;28;20169;-73
2022/06/26 05:10:38;;;;;;;0.00;0.00;;;;;;;19.19;80.89;100130.84;5090266;28;20207;-73
2022/06/26 05:13:03;;;;;;;0.00;0.00;;;;;;;19.23;81.63;100135.22;5072326;28;20178;-72
2022/06/26 05:15:28;;;;;;;0.00;0.00;;;;;;;19.20;81.21;100133.22;5090360;28;20182;-73
2022/06/26 05:17:53;;;;;;;0.00;0.00;;;;;;;19.18;82.02;100126.47;5089661;28;20633;-72
2022/06/26 05:20:19;;;;;;;0.00;0.00;;;;;;;19.25;82.18;100130.13;5090422;28;20265;-73
2022/06/26 05:22:44;;;;;;;0.10;0.10;;;;;;;19.25;82.30;100141.22;5090346;28;20177;-73
2022/06/26 05:25:09;;;;;;;0.00;0.00;;;;;;;19.31;82.56;100138.91;5090332;28;20184;-72
2022/06/26 05:27:35;;;;;;;0.17;0.17;;;;;;;19.36;82.50;100134.97;5089551;28;20208;-73
2022/06/26 05:30:00;;;;;;;1.03;1.03;;;;;;;19.42;82.57;100142.59;5089867;28;20182;-72
2022/06/26 05:32:26;;;;;;;0.00;0.00;;;;;;;19.54;82.52;100147.09;5090281;28;20177;-73
2022/06/26 05:34:51;;;;;;;0.67;0.67;;;;;;;19.65;83.02;100150.78;5072444;28;20201;-72
2022/06/26 05:37:16;;;;;;;0.00;0.00;;;;;;;19.66;82.43;100146.03;5089933;28;20243;-73
2022/06/26 05:39:41;;;;;;;0.00;0.00;;;;;;;19.76;81.92;100132.28;5089877;28;20329;-73
2022/06/26 05:42:07;;;;;;;0.00;0.00;;;;;;;19.90;81.83;100139.94;5090349;28;20202;-74
2022/06/26 05:44:32;;;;;;;0.00;0.00;;;;;;;20.00;81.68;100144.81;5090130;28;20189;-73
2022/06/26 05:47:00;;;;;;;0.00;0.00;;;;;;;20.26;82.36;100145.81;5089663;28;20214;-73
2022/06/26 05:49:26;;;;;;;0.00;0.00;;;;;;;20.38;81.59;100156.59;5089620;28;20232;-73
2022/06/26 05:51:51;;;;;;;0.77;0.77;;;;;;;20.33;82.52;100168.06;5090039;28;20520;-73
2022/06/26 05:54:17;;;;;;;0.93;0.93;;;;;;;19.82;84.37;100177.13;5090408;28;20205;-71
2022/06/26 05:56:42;;;;;;;0.00;0.00;;;;;;;19.60;85.60;100160.25;5089750;28;20184;-73
2022/06/26 05:59:08;;;;;;;0.60;0.60;;;;;;;19.58;86.09;100164.56;5089636;28;20441;-73
2022/06/26 06:01:34;;;;;;;0.00;0.00;;;;;;;19.55;86.44;100168.13;5090035;28;20247;-73
2022/06/26 06:03:59;;;;;;;0.00;0.00;;;;;;;19.62;86.38;100162.63;5089943;28;20174;-73
2022/06/26 06:06:25;;;;;;;0.63;0.63;;;;;;;19.71;85.92;100167.88;5089824;28;20253;-73
2022/06/26 06:08:50;;;;;;;0.00;0.00;;;;;;;19.82;85.54;100183.47;5089184;28;20589;-73
2022/06/26 06:11:15;;;;;;;0.30;0.30;;;;;;;19.95;85.80;100186.72;5089927;28;20569;-73
2022/06/26 06:13:41;;;;;;;0.00;0.00;;;;;;;20.01;84.43;100190.78;5090925;28;20258;-73
2022/06/26 06:16:06;;;;;;;0.77;0.67;;;;;;;20.03;83.96;100185.63;5076307;28;20696;-72
2022/06/26 06:18:33;;;;;;;0.30;0.30;;;;;;;20.00;83.81;100180.88;5072626;28;20202;-74
2022/06/26 06:20:59;;;;;;;0.30;0.30;;;;;;;20.02;84.34;100183.25;5073227;28;20176;-72
2022/06/26 06:23:24;;;;;;;0.33;0.33;;;;;;;20.04;84.09;100169.78;5073100;28;20220;-73
2022/06/26 06:25:49;;;;;;;1.50;1.40;;;;;;;20.00;83.89;100177.28;5073272;28;20738;-72
2022/06/26 06:28:15;;;;;;;0.03;0.03;;;;;;;20.07;83.50;100171.78;5072421;28;20656;-72
2022/06/26 06:30:40;;;;;;;1.50;1.40;;;;;;;20.18;82.49;100173.50;5073062;28;20531;-73
2022/06/26 06:33:06;;;;;;;0.10;0.10;;;;;;;20.45;81.56;100182.47;5072993;28;20171;-72
2022/06/26 06:35:31;;;;;;;0.40;0.40;;;;;;;20.59;80.85;100176.22;5072906;28;20599;-73
2022/06/26 06:37:57;;;;;;;0.70;0.70;;;;;;;20.64;80.91;100200.06;5072127;28;20171;-73
2022/06/26 06:40:22;;;;;;;0.83;0.83;;;;;;;20.58;81.55;100198.84;5054835;28;20229;-73
2022/06/26 06:42:48;;;;;;;1.33;1.23;;;;;;;20.56;81.46;100199.22;5072857;28;20259;-73
2022/06/26 06:45:13;;;;;;;1.10;1.00;;;;;;;20.65;81.48;100208.00;5073041;28;20669;-73
2022/06/26 06:47:38;;;;;;;1.50;1.40;;;;;;;20.78;78.83;100214.03;5071936;28;20212;-72
2022/06/26 06:50:05;;;;;;;3.97;1.07;;;;;;;20.93;76.57;100212.16;5072793;28;20227;-72
2022/06/26 06:52:30;;;;;;;1.20;1.20;;;;;;;21.05;75.28;100212.63;5072637;28;20548;-73
2022/06/26 06:54:56;;;;;;;0.80;0.80;;;;;;;21.18;75.94;100218.66;5072687;28;20181;-72
2022/06/26 06:57:21;;;;;;;0.70;0.70;;;;;;;21.35;74.98;100222.75;5072398;28;20244;-73
2022/06/26 06:59:47;;;;;;;0.77;0.77;;;;;;;21.51;74.65;100219.63;5072266;28;20167;-73
2022/06/26 07:02:12;;;;;;;1.27;1.23;;;;;;;21.60;73.00;100232.00;5072926;28;20171;-73
2022/06/26 07:04:38;;;;;;;0.73;0.73;;;;;;;21.66;73.53;100238.75;5072558;28;20611;-72
2022/06/26 07:07:04;;;;;;;0.10;0.10;;;;;;;21.73;73.01;100228.88;5072050;28;20216;-72
2022/06/26 07:09:29;;;;;;;0.57;0.57;;;;;;;21.77;72.00;100230.47;5071910;28;20165;-73
2022/06/26 07:11:55;;;;;;;0.40;0.40;;;;;;;21.86;72.69;100236.47;5072595;28;20230;-73
2022/06/26 07:14:20;;;;;;;0.60;0.57;;;;;;;22.02;72.36;100252.78;5072934;28;20180;-73
2022/06/26 07:16:47;;;;;;;0.73;0.47;;;;;;;22.19;73.23;100245.69;5072148;28;20823;-72
2022/06/26 07:19:13;;;;;;;0.67;0.67;;;;;;;22.34;71.80;100244.53;5071842;28;20201;-72
2022/06/26 07:21:39;;;;;;;0.73;0.73;;;;;;;22.44;71.45;100249.31;5072503;28;20209;-71
2022/06/26 07:24:04;;;;;;;0.10;0.10;;;;;;;22.53;70.51;100243.34;5072371;28;20202;-73
2022/06/26 07:26:29;;;;;;;0.30;0.30;;;;;;;22.61;70.34;100242.16;5071424;28;20567;-73
2022/06/26 07:28:55;;;;;;;0.27;0.27;;;;;;;22.65;70.11;100245.72;5071905;28;20174;-72
2022/06/26 07:31:20;;;;;;;0.77;0.77;;;;;;;22.67;69.21;100251.69;5072059;28;20637;-73
2022/06/26 07:36:30;;;;;;;1.00;0.87;;;;;;;22.77;67.54;100252.91;5071852;28;20178;-72
2022/06/26 07:38:55;;;;;;;0.80;0.80;;;;;;;22.75;67.25;100252.50;5071420;28;20770;-72
2022/06/26 07:41:21;;;;;;;0.60;0.60;;;;;;;22.77;68.11;100258.47;5071740;28;20177;-72
2022/06/26 07:43:47;;;;;;;0.73;0.67;;;;;;;22.83;67.27;100254.09;5072182;28;20547;-72
2022/06/26 07:46:12;;;;;;;0.00;0.00;;;;;;;22.99;67.99;100251.69;5071657;28;20194;-72
2022/06/26 07:48:38;;;;;;;0.00;0.00;;;;;;;23.14;67.52;100258.84;5070858;28;20252;-72
2022/06/26 07:51:03;;;;;;;5.50;1.23;;;;;;;23.28;64.83;100266.38;5071591;28;20170;-72
2022/06/26 07:53:28;;;;;;;1.43;1.13;;;;;;;23.41;63.84;100273.09;5071849;28;20684;-72
2022/06/26 07:55:54;;;;;;;1.33;1.23;;;;;;;23.54;63.66;100270.69;5071493;28;20623;-72
2022/06/26 07:58:20;;;;;;;7.33;0.60;;;;;;;23.51;63.15;100271.50;5070570;28;20170;-72
2022/06/26 08:00:46;;;;;;;2.43;1.23;;;;;;;23.62;64.42;100266.72;5071277;28;20232;-72
2022/06/26 08:03:15;;;;;;;0.43;0.43;;;;;;;23.70;64.10;100271.03;5071320;28;20635;-73
2022/06/26 08:05:41;;;;;;;0.67;0.67;;;;;;;23.76;63.42;100273.44;5071049;28;20253;-73
2022/06/26 08:08:07;;;;;;;1.00;1.00;;;;;;;23.75;63.29;100275.44;5070493;28;20178;-72
2022/06/26 08:10:33;;;;;;;0.07;0.07;;;;;;;23.77;64.08;100278.59;5071096;28;20179;-72
2022/06/26 08:12:58;;;;;;;1.00;0.47;;;;;;;23.91;63.14;100280.53;5071117;28;20193;-73
2022/06/26 08:15:24;;;;;;;0.00;0.00;;;;;;;23.92;62.11;100285.72;5071055;28;20201;-73
2022/06/26 08:17:50;;;;;;;0.33;0.33;;;;;;;24.01;62.58;100283.28;5065690;28;20188;-73
2022/06/26 08:20:15;;;;;;;0.27;0.27;;;;;;;24.07;61.69;100283.63;5075170;28;20224;-72
2022/06/26 08:22:41;;;;;;;0.83;0.83;;;;;;;23.97;61.17;100285.28;5086206;28;20178;-72
2022/06/26 08:25:07;;;;;;;0.00;0.00;;;;;;;23.95;61.04;100281.31;5073940;28;20806;-72
2022/06/26 08:27:32;;;;;;;0.50;0.50;;;;;;;23.96;60.89;100269.72;5076796;28;20218;-72
2022/06/26 08:29:58;;;;;;;0.07;0.07;;;;;;;23.93;59.99;100278.94;5070042;28;20185;-72
2022/06/26 08:32:23;;;;;;;0.00;0.00;;;;;;;23.94;59.95;100276.94;5084933;28;20738;-72
2022/06/26 08:34:48;;;;;;;0.00;0.00;;;;;;;24.07;60.60;100285.63;5091365;28;20606;-72
2022/06/26 08:37:15;;;;;;;2.90;1.17;;;;;;;24.16;60.14;100288.75;5070726;28;20503;-72
2022/06/26 08:39:40;;;;;;;0.30;0.30;;;;;;;24.17;60.19;100287.59;5068553;28;20182;-72
2022/06/26 08:42:06;;;;;;;0.00;0.00;;;;;;;24.25;60.28;100289.13;5073579;28;20656;-72
2022/06/26 08:44:32;;;;;;;1.20;1.10;;;;;;;24.41;59.92;100283.06;5076478;28;20551;-73
2022/06/26 08:46:58;;;;;;;0.00;0.00;;;;;;;24.46;60.00;100291.03;5070567;28;20304;-72
2022/06/26 08:49:24;;;;;;;0.00;0.00;;;;;;;24.48;59.93;100286.59;5070057;28;20823;-72
2022/06/26 08:51:51;;;;;;;0.00;0.00;;;;;;;24.52;60.24;100290.16;5067181;28;20276;-72
2022/06/26 08:54:18;;;;;;;0.17;0.17;;;;;;;24.70;60.36;100295.59;5065463;28;20190;-72
2022/06/26 08:56:45;;;;;;;0.40;0.40;;;;;;;24.72;59.41;100298.78;5070110;28;20186;-72
2022/06/26 08:59:13;;;;;;;0.37;0.37;;;;;;;24.74;59.98;100296.41;5061743;28;20264;-72
2022/06/26 09:01:39;;;;;;;0.77;0.77;;;;;;;24.87;60.79;100300.25;5070694;28;20189;-72
2022/06/26 09:04:05;;;;;;;0.00;0.00;;;;;;;24.86;58.54;100295.88;5062742;28;20639;-72
2022/06/26 09:06:38;;;;;;;0.10;0.10;;;;;;;25.02;58.97;100300.94;5071018;28;20217;-72
2022/06/26 09:09:18;;;;;;;0.33;0.33;;;;;;;25.09;59.47;100300.09;5080124;28;20181;-73
2022/06/26 09:11:44;;;;;;;0.00;0.00;;;;;;;25.15;59.19;100301.25;5090555;28;20201;-72
2022/06/26 09:14:11;;;;;;;0.00;0.00;;;;;;;25.13;57.97;100300.88;5090455;28;20181;-73
2022/06/26 09:16:39;;;;;;;0.00;0.00;;;;;;;25.23;59.49;100286.00;5090095;28;20166;-73
2022/06/26 09:19:20;;;;;;;0.13;0.13;;;;;;;25.37;58.84;100304.63;5090058;28;20664;-72
2022/06/26 09:21:47;;;;;;;0.00;0.00;;;;;;;25.30;58.38;100299.88;5087256;28;20178;-73
2022/06/26 09:24:14;;;;;;;0.40;0.40;;;;;;;25.27;57.30;100306.31;5070173;28;20184;-72
2022/06/26 09:26:41;;;;;;;0.00;0.00;;;;;;;25.29;58.37;100298.28;5069866;28;20210;-73
2022/06/26 09:29:15;;;;;;;0.53;0.53;;;;;;;25.28;57.40;100302.31;5069607;28;20387;-72
2022/06/26 09:31:41;;;;;;;0.10;0.10;;;;;;;25.18;57.80;100289.25;5070203;28;20569;-72
2022/06/26 09:34:21;;;;;;;0.00;0.00;;;;;;;25.37;58.12;100297.03;5070268;28;20257;-73
2022/06/26 09:37:01;;;;;;;0.10;0.10;;;;;;;25.30;58.44;100301.88;5069728;28;20174;-72
2022/06/26 09:39:28;;;;;;;0.00;0.00;;;;;;;25.52;58.43;100311.66;5068888;28;20243;-72
2022/06/26 09:41:54;;;;;;;0.00;0.00;;;;;;;25.80;59.20;100311.34;5067948;28;20197;-73
2022/06/26 09:44:20;;;;;;;2.60;1.30;;;;;;;25.92;57.34;100310.00;5047558;28;20212;-72
2022/06/26 09:46:46;;;;;;;0.70;0.70;;;;;;;25.78;55.52;100313.78;5059299;28;20224;-73
2022/06/26 09:49:12;;;;;;;0.43;0.43;;;;;;;25.77;55.52;100317.78;5069961;28;20174;-73
2022/06/26 09:51:39;;;;;;;0.47;0.47;;;;;;;25.99;55.56;100312.72;5073617;28;20193;-73
2022/06/26 09:54:05;;;;;;;0.10;0.10;;;;;;;25.98;56.04;100311.13;5071565;28;20534;-72
2022/06/26 09:56:32;;;;;;;0.00;0.00;;;;;;;26.24;56.34;100320.78;5088320;28;20185;-73
2022/06/26 09:58:59;;;;;;;0.53;0.53;;;;;;;26.09;55.51;100319.41;5093440;28;20231;-72
2022/06/26 10:06:56;;;;;;;0.73;0.73;;;;;;;26.02;55.99;100323.06;5093406;28;20208;-73
2022/06/26 10:09:22;;;;;;;0.00;0.00;;;;;;;26.43;55.24;100324.94;5088036;28;20174;-73
2022/06/26 10:11:47;;;;;;;0.10;0.10;;;;;;;26.62;52.79;100320.69;5071973;28;20229;-73
2022/06/26 10:14:18;;;;;;;0.10;0.10;;;;;;;26.71;52.30;100320.91;5077286;28;20543;-72
2022/06/26 10:17:28;;;;;;;0.37;0.37;;;;;;;26.89;51.79;100324.22;5093000;28;20227;-73
2022/06/26 10:20:11;;;;;;;0.40;0.40;;;;;;;26.89;52.58;100326.22;5082465;28;20175;-73
2022/06/26 10:22:43;;;;;;;0.50;0.50;;;;;;;26.83;51.74;100325.94;5093374;28;20175;-73
2022/06/26 10:25:21;;;;;;;0.53;0.53;;;;;;;26.99;52.90;100322.47;5093297;28;20592;-73
2022/06/26 10:27:46;;;;;;;1.50;1.40;;;;;;;27.17;53.08;100334.19;5092691;28;20300;-72
2022/06/26 10:30:16;;;;;;;0.63;0.50;;;;;;;27.36;51.94;100331.88;5077250;28;20257;-73
2022/06/26 10:32:43;;;;;;;0.10;0.10;;;;;;;27.40;52.16;100336.19;5089544;28;20182;-73
2022/06/26 10:35:09;;;;;;;0.00;0.00;;;;;;;27.43;51.67;100332.53;5093038;28;20705;-73
2022/06/26 10:37:42;;;;;;;0.03;0.03;;;;;;;27.57;52.93;100334.25;5092678;28;20653;-73
2022/06/26 10:43:03;;;;;;;1.90;0.60;;;;;;;27.38;52.85;100326.63;5093297;28;20208;-73
2022/06/26 10:45:32;;;;;;;1.03;1.03;;;;;;;27.20;53.38;100332.56;5077605;28;20201;-72
2022/06/26 10:48:05;;;;;;;0.10;0.10;;;;;;;27.25;53.67;100329.25;5090599;28;20196;-73
2022/06/26 10:50:39;;;;;;;0.50;0.50;;;;;;;27.29;55.41;100335.59;5091478;28;20256;-73
2022/06/26 10:53:25;;;;;;;0.00;0.00;;;;;;;27.44;52.89;100322.88;5093215;28;20186;-73
2022/06/26 10:55:56;;;;;;;0.00;0.00;;;;;;;27.51;54.01;100330.38;5093009;28;20230;-73
2022/06/26 10:58:29;;;;;;;0.00;0.00;;;;;;;27.44;53.02;100316.47;5073753;28;20178;-72
2022/06/26 11:00:58;;;;;;;0.43;0.43;;;;;;;27.35;54.45;100319.84;5091581;28;20288;-72
2022/06/26 11:03:24;;;;;;;0.00;0.00;;;;;;;27.36;55.04;100318.63;5092713;28;20277;-73
2022/06/26 11:06:06;;;;;;;0.40;0.40;;;;;;;26.88;55.09;100319.03;5091532;28;20634;-73
2022/06/26 11:08:36;;;;;;;0.00;0.00;;;;;;;26.95;55.62;100311.31;5066243;28;20184;-72
2022/06/26 11:11:06;;;;;;;0.00;0.00;;;;;;;26.99;55.52;100312.03;5074503;28;20221;-73
2022/06/26 11:13:34;;;;;;;0.90;0.77;;;;;;;26.91;56.35;100315.41;5072026;28;20637;-73
2022/06/26 11:16:00;;;;;;;0.60;0.60;;;;;;;27.46;55.13;100314.81;5072277;28;20199;-72
2022/06/26 11:18:25;;;;;;;0.60;0.57;;;;;;;27.44;53.63;100311.66;5068491;28;20240;-73
2022/06/26 11:20:54;;;;;;;0.60;0.60;;;;;;;27.46;53.89;100317.63;5068103;28;20232;-73
2022/06/26 11:23:24;;;;;;;0.07;0.07;;;;;;;27.46;53.81;100317.63;5072750;28;20189;-75
2022/06/26 11:25:55;;;;;;;0.40;0.40;;;;;;;27.33;53.36;100315.88;5072977;28;20194;-73
2022/06/26 11:28:44;;;;;;;0.47;0.47;;;;;;;27.09;54.68;100324.31;5072094;28;20173;-73
2022/06/26 11:31:18;;;;;;;0.83;0.43;;;;;;;27.14;55.75;100312.59;5073109;28;20194;-73
2022/06/26 11:33:44;;;;;;;0.73;0.73;;;;;;;27.05;56.25;100329.19;5072407;28;20162;-75
2022/06/26 11:36:12;;;;;;;0.77;0.77;;;;;;;27.19;56.69;100320.53;5072278;28;20552;-74
2022/06/26 11:38:38;;;;;;;1.53;1.43;;;;;;;26.86;57.14;100321.47;5071920;28;20171;-74
2022/06/26 11:41:05;;;;;;;0.43;0.43;;;;;;;26.80;57.21;100321.19;5072454;28;20224;-74